createdAt,value
2023-09-08T00:00:23.918Z,19.72
2023-09-08T00:02:51.927Z,19.69
2023-09-08T00:05:20.689Z,19.53
2023-09-08T00:07:48.706Z,19.47
2023-09-08T00:10:18.533Z,19.50
2023-09-08T00:12:46.621Z,19.46
2023-09-08T00:15:14.812Z,19.34
2023-09-08T00:17:42.705Z,19.38
2023-09-08T00:20:11.751Z,19.35
2023-09-08T00:22:40.196Z,19.30
2023-09-08T00:25:09.051Z,19.42
2023-09-08T00:27:39.219Z,19.42
2023-09-08T00:30:08.653Z,19.32
2023-09-08T00:32:36.910Z,19.33
2023-09-08T00:35:05.677Z,19.25
2023-09-08T00:37:34.515Z,19.38
2023-09-08T00:40:02.510Z,19.20
2023-09-08T00:42:30.537Z,19.25
2023-09-08T00:44:59.846Z,19.13
2023-09-08T00:47:28.254Z,19.12
2023-09-08T00:49:57.040Z,19.08
2023-09-08T00:52:26.418Z,19.00
2023-09-08T00:54:54.718Z,19.05
2023-09-08T00:57:22.838Z,18.99
2023-09-08T00:59:51.141Z,18.93
2023-09-08T01:02:20.829Z,18.91
2023-09-08T01:04:49.065Z,18.88
2023-09-08T01:07:18.208Z,18.89
2023-09-08T01:09:49.745Z,18.81
2023-09-08T01:12:18.117Z,18.77
2023-09-08T01:14:46.366Z,18.77
2023-09-08T01:17:14.525Z,18.73
2023-09-08T01:19:46.208Z,18.75
2023-09-08T01:22:41.271Z,18.84
2023-09-08T01:25:17.678Z,18.77
2023-09-08T01:27:49.736Z,18.78
2023-09-08T01:30:18.810Z,18.71
2023-09-08T01:32:48.143Z,18.71
2023-09-08T01:35:16.260Z,18.60
2023-09-08T01:37:46.559Z,18.74
2023-09-08T01:40:16.922Z,18.62
2023-09-08T01:42:45.210Z,18.62
2023-09-08T01:45:13.792Z,18.59
2023-09-08T01:47:42.320Z,18.60
2023-09-08T01:50:11.363Z,18.57
2023-09-08T01:52:39.573Z,18.60
2023-09-08T01:55:08.880Z,18.53
2023-09-08T01:57:38.378Z,18.57
2023-09-08T02:00:07.946Z,18.60
2023-09-08T02:02:40.766Z,18.63
2023-09-08T02:05:09.842Z,18.74
2023-09-08T02:07:38.123Z,18.62
2023-09-08T02:10:06.794Z,18.52
2023-09-08T02:12:35.039Z,18.68
2023-09-08T02:15:06.460Z,18.57
2023-09-08T02:17:35.930Z,18.48
2023-09-08T02:20:05.330Z,18.28
2023-09-08T02:22:33.321Z,18.25
2023-09-08T02:25:01.485Z,18.33
2023-09-08T02:27:30.177Z,18.25
2023-09-08T02:29:58.252Z,18.26
2023-09-08T02:32:27.487Z,18.14
2023-09-08T02:34:56.712Z,18.02
2023-09-08T02:37:25.215Z,18.00
2023-09-08T02:39:53.917Z,17.88
2023-09-08T02:42:22.592Z,17.77
2023-09-08T02:44:50.579Z,17.67
2023-09-08T02:47:18.926Z,17.65
2023-09-08T02:49:48.944Z,17.63
2023-09-08T02:52:17.118Z,17.65
2023-09-08T02:54:45.206Z,17.70
2023-09-08T02:57:13.780Z,17.63
2023-09-08T02:59:42.554Z,17.70
2023-09-08T03:02:11.000Z,17.82
2023-09-08T03:04:39.417Z,17.83
2023-09-08T03:07:08.855Z,17.83
2023-09-08T03:09:37.672Z,17.82
2023-09-08T03:12:06.694Z,17.77
2023-09-08T03:14:36.811Z,17.68
2023-09-08T03:17:05.173Z,17.68
2023-09-08T03:19:33.609Z,17.40
2023-09-08T03:22:01.978Z,17.28
2023-09-08T03:24:31.679Z,17.22
2023-09-08T03:27:00.076Z,17.28
2023-09-08T03:29:30.113Z,17.20
2023-09-08T03:31:58.345Z,17.25
2023-09-08T03:34:26.632Z,17.23
2023-09-08T03:36:56.137Z,17.18
2023-09-08T03:39:24.431Z,17.19
2023-09-08T03:41:53.920Z,17.10
2023-09-08T03:44:22.086Z,16.98
2023-09-08T03:46:50.196Z,16.79
2023-09-08T03:49:19.681Z,16.77
2023-09-08T03:51:47.958Z,16.87
2023-09-08T03:54:16.229Z,16.59
2023-09-08T03:56:44.137Z,16.48
2023-09-08T03:59:13.989Z,16.49
2023-09-08T04:01:42.524Z,16.50
2023-09-08T04:04:10.631Z,16.44
2023-09-08T04:06:38.478Z,16.52
2023-09-08T04:09:06.592Z,16.46
2023-09-08T04:11:34.413Z,16.48
2023-09-08T04:14:02.511Z,16.46
2023-09-08T04:16:31.833Z,16.38
2023-09-08T04:19:00.315Z,16.39
2023-09-08T04:21:28.240Z,16.39
2023-09-08T04:23:56.092Z,16.32
2023-09-08T04:26:23.985Z,16.14
2023-09-08T04:28:51.755Z,16.17
2023-09-08T04:31:20.919Z,16.08
2023-09-08T04:33:50.257Z,16.06
2023-09-08T04:36:18.546Z,16.09
2023-09-08T04:38:46.899Z,16.14
2023-09-08T04:41:14.733Z,16.04
2023-09-08T04:43:42.829Z,16.14
2023-09-08T04:46:10.637Z,16.15
2023-09-08T04:48:41.004Z,16.28
2023-09-08T04:51:10.485Z,16.09
2023-09-08T04:53:39.050Z,16.20
2023-09-08T04:56:06.906Z,16.14
2023-09-08T04:58:34.903Z,16.47
2023-09-08T05:01:02.992Z,16.54
2023-09-08T05:03:32.294Z,16.77
2023-09-08T05:06:02.522Z,16.83
2023-09-08T05:08:32.674Z,16.78
2023-09-08T05:11:00.795Z,16.67
2023-09-08T05:13:31.807Z,16.71
2023-09-08T05:16:12.868Z,16.68
2023-09-08T05:18:49.514Z,16.69
2023-09-08T05:21:18.532Z,16.76
2023-09-08T05:23:49.598Z,16.82
2023-09-08T05:26:18.187Z,16.71
2023-09-08T05:28:46.566Z,16.76
2023-09-08T05:31:14.907Z,16.74
2023-09-08T05:33:43.360Z,16.71
2023-09-08T05:36:14.138Z,16.76
2023-09-08T05:38:44.305Z,17.15
2023-09-08T05:41:14.233Z,17.06
2023-09-08T05:43:42.840Z,17.15
2023-09-08T05:46:11.137Z,17.10
2023-09-08T05:48:40.202Z,17.08
2023-09-08T05:51:08.670Z,17.18
2023-09-08T05:53:40.784Z,17.20
2023-09-08T05:56:09.939Z,17.15
2023-09-08T05:58:40.675Z,17.19
2023-09-08T06:01:17.544Z,17.22
2023-09-08T06:03:47.061Z,17.22
2023-09-08T06:06:16.571Z,17.20
2023-09-08T06:08:44.846Z,17.30
2023-09-08T06:11:14.024Z,17.49
2023-09-08T06:13:44.778Z,17.59
2023-09-08T06:16:13.061Z,17.60
2023-09-08T06:18:42.135Z,17.55
2023-09-08T06:21:14.891Z,17.59
2023-09-08T06:23:43.625Z,17.93
2023-09-08T06:26:14.753Z,17.77
2023-09-08T06:28:45.169Z,17.94
2023-09-08T06:31:13.528Z,17.80
2023-09-08T06:33:43.753Z,17.81
2023-09-08T06:36:12.141Z,17.88
2023-09-08T06:38:40.950Z,18.16
2023-09-08T06:41:12.900Z,18.08
2023-09-08T06:43:41.522Z,18.59
2023-09-08T06:46:19.077Z,18.27
2023-09-08T06:48:47.630Z,18.20
2023-09-08T06:51:16.409Z,18.10
2023-09-08T06:53:46.056Z,18.05
2023-09-08T06:56:15.560Z,18.14
2023-09-08T06:58:44.101Z,18.10
2023-09-08T07:01:12.323Z,18.11
2023-09-08T07:03:42.225Z,18.13
2023-09-08T07:06:11.259Z,18.19
2023-09-08T07:08:39.109Z,18.40
2023-09-08T07:11:07.173Z,18.40
2023-09-08T07:13:36.063Z,18.46
2023-09-08T07:16:04.095Z,18.53
2023-09-08T07:18:37.171Z,18.63
2023-09-08T07:21:07.609Z,18.82
2023-09-08T07:23:38.082Z,19.04
2023-09-08T07:26:07.273Z,19.24
2023-09-08T07:28:36.115Z,19.57
2023-09-08T07:31:10.236Z,20.08
2023-09-08T07:33:40.837Z,20.27
2023-09-08T07:36:11.421Z,20.54
2023-09-08T07:38:41.205Z,20.93
2023-09-08T07:41:09.394Z,20.83
2023-09-08T07:43:41.569Z,20.70
2023-09-08T07:46:11.534Z,20.60
2023-09-08T07:48:39.794Z,20.61
2023-09-08T07:51:08.128Z,20.77
2023-09-08T07:53:37.789Z,20.74
2023-09-08T07:56:06.323Z,20.72
2023-09-08T07:58:34.728Z,20.58
2023-09-08T08:01:03.415Z,20.60
2023-09-08T08:03:31.270Z,20.73
2023-09-08T08:05:59.831Z,21.10
2023-09-08T08:08:27.618Z,21.25
2023-09-08T08:10:56.740Z,21.19
2023-09-08T08:13:24.464Z,21.09
2023-09-08T08:15:52.220Z,21.13
2023-09-08T08:18:20.297Z,21.07
2023-09-08T08:20:48.362Z,21.19
2023-09-08T08:23:16.523Z,21.05
2023-09-08T08:25:44.305Z,21.14
2023-09-08T08:28:13.738Z,21.03
2023-09-08T08:30:41.975Z,20.93
2023-09-08T08:33:09.918Z,20.86
2023-09-08T08:35:37.680Z,21.02
2023-09-08T08:38:06.335Z,21.16
2023-09-08T08:40:36.051Z,21.34
2023-09-08T08:43:04.925Z,21.52
2023-09-08T08:45:35.123Z,21.72
2023-09-08T08:48:04.010Z,21.59
2023-09-08T08:50:33.655Z,21.71
2023-09-08T08:53:03.165Z,21.56
2023-09-08T08:55:32.391Z,21.96
2023-09-08T08:58:06.958Z,22.28
2023-09-08T09:00:38.772Z,22.24
2023-09-08T09:03:14.598Z,22.84
2023-09-08T09:05:48.243Z,22.76
2023-09-08T09:08:18.170Z,22.65
2023-09-08T09:10:46.238Z,22.82
2023-09-08T09:13:14.028Z,23.03
2023-09-08T09:15:43.960Z,22.91
2023-09-08T09:18:11.791Z,23.20
2023-09-08T09:20:41.621Z,23.17
2023-09-08T09:23:11.429Z,23.07
2023-09-08T09:25:39.446Z,23.11
2023-09-08T09:28:08.684Z,23.10
2023-09-08T09:30:52.700Z,22.82
2023-09-08T09:33:21.948Z,23.33
2023-09-08T09:35:52.719Z,23.71
2023-09-08T09:38:21.638Z,23.78
2023-09-08T09:40:50.745Z,23.93
2023-09-08T09:43:22.620Z,24.26
2023-09-08T09:45:51.943Z,24.37
2023-09-08T09:48:21.960Z,24.60
2023-09-08T09:50:50.230Z,25.06
2023-09-08T09:53:19.775Z,24.96
2023-09-08T09:55:47.788Z,24.94
2023-09-08T09:58:17.170Z,24.90
2023-09-08T10:00:49.103Z,25.03
2023-09-08T10:03:20.743Z,25.23
2023-09-08T10:05:50.703Z,25.15
2023-09-08T10:08:19.030Z,25.41
2023-09-08T10:10:49.190Z,25.42
2023-09-08T10:13:22.526Z,25.19
2023-09-08T10:15:52.120Z,25.11
2023-09-08T10:18:23.216Z,25.30
2023-09-08T10:20:53.697Z,25.38
2023-09-08T10:23:26.725Z,25.47
2023-09-08T10:26:03.642Z,25.20
2023-09-08T10:28:33.473Z,25.17
2023-09-08T10:31:03.304Z,25.06
2023-09-08T10:33:33.606Z,25.15
2023-09-08T10:36:04.233Z,25.78
2023-09-08T10:38:34.947Z,25.77
2023-09-08T10:41:29.928Z,25.71
2023-09-08T10:43:58.817Z,25.42
2023-09-08T10:46:30.357Z,25.77
2023-09-08T10:49:06.181Z,25.66
2023-09-08T10:51:34.890Z,25.75
2023-09-08T10:54:03.621Z,26.01
2023-09-08T10:56:50.839Z,26.03
2023-09-08T10:59:20.425Z,26.46
2023-09-08T11:01:50.039Z,26.28
2023-09-08T11:04:20.489Z,26.33
2023-09-08T11:06:49.283Z,26.99
2023-09-08T11:09:18.761Z,27.27
2023-09-08T11:11:47.307Z,27.60
2023-09-08T11:14:15.621Z,27.76
2023-09-08T11:16:43.605Z,27.92
2023-09-08T11:19:12.003Z,27.96
2023-09-08T11:21:42.486Z,27.44
2023-09-08T11:24:12.852Z,28.23
2023-09-08T11:26:41.133Z,28.85
2023-09-08T11:29:09.731Z,29.32
2023-09-08T11:31:38.611Z,29.88
2023-09-08T11:34:07.836Z,30.58
2023-09-08T11:36:37.441Z,30.52
2023-09-08T11:39:08.791Z,30.91
2023-09-08T11:41:37.450Z,30.95
2023-09-08T11:44:07.224Z,31.28
2023-09-08T11:46:35.407Z,31.85
2023-09-08T11:49:03.770Z,31.40
2023-09-08T11:51:32.525Z,31.51
2023-09-08T11:54:00.721Z,32.11
2023-09-08T11:56:32.644Z,32.10
2023-09-08T11:59:05.606Z,32.31
2023-09-08T12:01:33.681Z,32.34
2023-09-08T12:04:02.117Z,32.12
2023-09-08T12:06:31.114Z,32.34
2023-09-08T12:09:03.922Z,32.89
2023-09-08T12:11:38.421Z,32.25
2023-09-08T12:14:10.738Z,32.26
2023-09-08T12:16:39.189Z,32.12
2023-09-08T12:19:08.529Z,33.71
2023-09-08T12:21:55.688Z,33.07
2023-09-08T12:24:58.957Z,34.47
2023-09-08T12:27:30.285Z,34.13
2023-09-08T12:29:59.574Z,34.49
2023-09-08T12:32:30.838Z,34.55
2023-09-08T12:35:00.049Z,34.44
2023-09-08T12:37:30.178Z,34.58
2023-09-08T12:39:58.726Z,34.38
2023-09-08T12:45:11.187Z,34.22
2023-09-08T12:47:39.783Z,34.70
2023-09-08T12:50:10.600Z,34.25
2023-09-08T12:52:42.252Z,33.86
2023-09-08T12:55:13.279Z,33.84
2023-09-08T12:57:43.735Z,32.55
2023-09-08T13:00:16.958Z,33.62
2023-09-08T13:02:46.884Z,33.66
2023-09-08T13:05:15.592Z,34.05
2023-09-08T13:07:44.184Z,33.65
2023-09-08T13:10:12.720Z,33.97
2023-09-08T13:12:42.161Z,34.48
2023-09-08T13:15:14.017Z,34.26
2023-09-08T13:17:46.631Z,34.46
2023-09-08T13:20:14.922Z,34.19
2023-09-08T13:22:43.093Z,34.14
2023-09-08T13:25:11.460Z,33.82
2023-09-08T13:27:40.116Z,33.85
2023-09-08T13:30:12.426Z,33.68
2023-09-08T13:32:41.277Z,33.86
2023-09-08T13:35:11.643Z,34.24
2023-09-08T13:37:40.090Z,33.67
2023-09-08T13:40:10.087Z,33.31
2023-09-08T13:42:39.264Z,33.35
2023-09-08T13:45:07.991Z,33.20
2023-09-08T13:47:38.115Z,33.30
2023-09-08T13:50:07.781Z,33.83
2023-09-08T13:52:42.921Z,33.82
2023-09-08T13:55:34.957Z,33.37
2023-09-08T13:58:01.877Z,33.51
2023-09-08T14:00:32.041Z,33.13
2023-09-08T14:03:05.673Z,33.12
2023-09-08T14:05:37.363Z,32.89
2023-09-08T14:08:17.714Z,32.75
2023-09-08T14:10:58.696Z,32.16
2023-09-08T14:13:34.108Z,32.17
2023-09-08T14:16:03.126Z,32.12
2023-09-08T14:18:31.422Z,32.17
2023-09-08T14:20:59.343Z,32.66
2023-09-08T14:23:29.926Z,32.90
2023-09-08T14:25:57.702Z,32.48
2023-09-08T14:28:26.947Z,32.71
2023-09-08T14:30:55.717Z,32.80
2023-09-08T14:33:23.656Z,32.80
2023-09-08T14:35:53.066Z,32.61
2023-09-08T14:38:20.873Z,32.30
2023-09-08T14:40:58.176Z,32.27
2023-09-08T14:43:26.458Z,32.12
2023-09-08T14:45:54.746Z,32.31
2023-09-08T14:48:22.812Z,32.33
2023-09-08T14:50:50.860Z,32.39
2023-09-08T14:53:18.994Z,32.25
2023-09-08T14:55:49.444Z,31.79
2023-09-08T14:58:18.880Z,31.81
2023-09-08T15:00:47.592Z,31.51
2023-09-08T15:03:15.487Z,31.53
2023-09-08T15:05:44.005Z,31.08
2023-09-08T15:08:13.605Z,30.66
2023-09-08T15:10:41.739Z,30.48
2023-09-08T15:13:09.738Z,30.13
2023-09-08T15:15:39.061Z,30.21
2023-09-08T15:18:07.477Z,29.65
2023-09-08T15:20:35.307Z,29.47
2023-09-08T15:23:05.510Z,29.45
2023-09-08T15:25:35.882Z,29.21
2023-09-08T15:28:03.613Z,29.19
2023-09-08T15:30:31.573Z,29.07
2023-09-08T15:33:05.546Z,28.93
2023-09-08T15:35:33.997Z,28.82
2023-09-08T15:38:01.946Z,28.90
2023-09-08T15:40:30.316Z,28.75
2023-09-08T15:42:58.067Z,28.67
2023-09-08T15:45:26.935Z,28.66
2023-09-08T15:47:54.924Z,28.49
2023-09-08T15:50:24.278Z,28.32
2023-09-08T15:52:52.629Z,28.27
2023-09-08T15:55:20.468Z,28.10
2023-09-08T15:57:49.023Z,27.93
2023-09-08T16:00:18.171Z,27.89
2023-09-08T16:02:46.298Z,27.88
2023-09-08T16:05:15.155Z,27.78
2023-09-08T16:07:47.113Z,27.78
2023-09-08T16:10:15.174Z,27.64
2023-09-08T16:12:44.412Z,27.32
2023-09-08T16:15:12.428Z,27.17
2023-09-08T16:17:40.452Z,27.14
2023-09-08T16:20:09.888Z,27.00
2023-09-08T16:22:38.148Z,26.88
2023-09-08T16:25:08.902Z,26.71
2023-09-08T16:27:36.701Z,26.61
2023-09-08T16:30:05.599Z,26.63
2023-09-08T16:32:33.972Z,26.55
2023-09-08T16:35:02.332Z,26.61
2023-09-08T16:37:30.547Z,26.48
2023-09-08T16:39:59.371Z,26.30
2023-09-08T16:42:28.899Z,26.18
2023-09-08T16:44:57.295Z,26.22
2023-09-08T16:47:26.891Z,26.04
2023-09-08T16:49:55.029Z,25.95
2023-09-08T16:52:24.514Z,25.93
2023-09-08T16:54:52.465Z,25.84
2023-09-08T16:57:20.270Z,25.79
2023-09-08T16:59:49.579Z,25.75
2023-09-08T17:02:17.425Z,25.73
2023-09-08T17:04:47.521Z,25.64
2023-09-08T17:07:15.962Z,25.60
2023-09-08T17:09:44.155Z,25.44
2023-09-08T17:12:12.392Z,25.43
2023-09-08T17:14:40.309Z,25.36
2023-09-08T17:17:09.609Z,25.30
2023-09-08T17:19:38.079Z,25.20
2023-09-08T17:22:07.594Z,25.15
2023-09-08T17:24:36.686Z,25.05
2023-09-08T17:27:04.901Z,24.96
2023-09-08T17:29:33.200Z,24.93
2023-09-08T17:32:01.087Z,24.81
2023-09-08T17:34:30.437Z,24.77
2023-09-08T17:37:01.007Z,24.69
2023-09-08T17:39:29.748Z,24.65
2023-09-08T17:41:57.686Z,24.58
2023-09-08T17:44:25.471Z,24.55
2023-09-08T17:46:53.688Z,24.47
2023-09-08T17:49:21.586Z,24.47
2023-09-08T17:51:51.577Z,24.40
2023-09-08T17:54:19.820Z,24.27
2023-09-08T17:56:48.499Z,24.21
2023-09-08T17:59:17.081Z,24.23
2023-09-08T18:01:45.365Z,24.16
2023-09-08T18:04:13.912Z,24.10
2023-09-08T18:06:42.739Z,24.02
2023-09-08T18:09:12.428Z,23.99
2023-09-08T18:11:40.648Z,23.94
2023-09-08T18:14:08.510Z,23.91
2023-09-08T18:16:37.061Z,23.87
2023-09-08T18:19:04.941Z,23.82
2023-09-08T18:21:33.521Z,23.78
2023-09-08T18:24:01.354Z,23.70
2023-09-08T18:26:30.562Z,23.67
2023-09-08T18:28:58.347Z,23.58
2023-09-08T18:31:27.009Z,23.58
2023-09-08T18:33:55.594Z,23.52
2023-09-08T18:36:23.665Z,23.53
2023-09-08T18:38:51.520Z,23.48
2023-09-08T18:41:19.496Z,23.44
2023-09-08T18:43:49.584Z,23.41
2023-09-08T18:46:17.470Z,23.36
2023-09-08T18:48:46.527Z,23.35
2023-09-08T18:51:15.038Z,23.32
2023-09-08T18:53:43.059Z,23.29
2023-09-08T18:56:11.143Z,23.21
2023-09-08T18:58:39.105Z,23.18
2023-09-08T19:01:09.127Z,23.17
2023-09-08T19:03:38.386Z,23.12
2023-09-08T19:06:06.825Z,23.08
2023-09-08T19:08:34.868Z,23.05
2023-09-08T19:11:02.578Z,23.06
2023-09-08T19:13:30.818Z,23.03
2023-09-08T19:15:58.941Z,22.97
2023-09-08T19:18:28.165Z,22.97
2023-09-08T19:20:57.077Z,22.95
2023-09-08T19:23:24.956Z,22.94
2023-09-08T19:25:52.700Z,22.89
2023-09-08T19:28:20.540Z,22.82
2023-09-08T19:30:49.265Z,22.85
2023-09-08T19:33:17.535Z,22.79
2023-09-08T19:35:46.667Z,22.75
2023-09-08T19:38:14.449Z,22.75
2023-09-08T19:40:42.226Z,22.71
2023-09-08T19:43:10.248Z,22.69
2023-09-08T19:45:38.270Z,22.68
2023-09-08T19:48:07.424Z,22.65
2023-09-08T19:50:35.202Z,22.63
2023-09-08T19:53:04.671Z,22.63
2023-09-08T19:55:32.418Z,22.60
2023-09-08T19:58:00.583Z,22.56
2023-09-08T20:00:28.330Z,22.55
2023-09-08T20:02:57.811Z,22.55
2023-09-08T20:05:26.027Z,22.54
2023-09-08T20:07:53.797Z,22.48
2023-09-08T20:10:24.139Z,22.43
2023-09-08T20:12:51.874Z,22.42
2023-09-08T20:15:20.066Z,22.42
2023-09-08T20:17:47.982Z,22.41
2023-09-08T20:20:16.468Z,22.33
2023-09-08T20:22:44.207Z,22.31
2023-09-08T20:25:11.929Z,22.24
2023-09-08T20:27:41.149Z,22.27
2023-09-08T20:30:09.923Z,22.24
2023-09-08T20:32:37.789Z,22.24
2023-09-08T20:35:06.367Z,22.23
2023-09-08T20:37:34.166Z,22.26
2023-09-08T20:40:02.081Z,22.21
2023-09-08T20:42:30.111Z,22.22
2023-09-08T20:44:59.697Z,22.21
2023-09-08T20:47:27.455Z,22.13
2023-09-08T20:49:57.182Z,22.07
2023-09-08T20:52:25.158Z,22.02
2023-09-08T20:54:53.037Z,21.96
2023-09-08T20:57:20.825Z,21.88
2023-09-08T20:59:48.571Z,21.84
2023-09-08T21:02:19.168Z,21.77
2023-09-08T21:04:46.971Z,21.69
2023-09-08T21:07:14.975Z,21.63
2023-09-08T21:09:42.807Z,21.55
2023-09-08T21:12:10.708Z,21.36
2023-09-08T21:14:38.713Z,21.12
2023-09-08T21:17:06.691Z,20.97
2023-09-08T21:19:36.714Z,20.91
2023-09-08T21:22:05.062Z,20.82
2023-09-08T21:24:33.257Z,20.72
2023-09-08T21:27:01.427Z,20.70
2023-09-08T21:29:29.249Z,20.63
2023-09-08T21:31:57.545Z,20.61
2023-09-08T21:34:26.058Z,20.67
2023-09-08T21:36:55.238Z,20.61
2023-09-08T21:39:22.953Z,20.63
2023-09-08T21:41:50.683Z,20.58
2023-09-08T21:44:18.832Z,20.61
2023-09-08T21:46:46.747Z,20.65
2023-09-08T21:49:14.717Z,20.69
2023-09-08T21:51:45.326Z,20.69
2023-09-08T21:54:14.508Z,20.72
2023-09-08T21:56:42.766Z,20.68
2023-09-08T21:59:11.383Z,20.70
2023-09-08T22:01:39.343Z,20.69
2023-09-08T22:04:07.393Z,20.69
2023-09-08T22:06:35.423Z,20.64
2023-09-08T22:09:03.240Z,20.63
2023-09-08T22:11:33.073Z,20.61
2023-09-08T22:14:00.984Z,20.64
2023-09-08T22:16:29.980Z,20.66
2023-09-08T22:18:57.996Z,20.61
2023-09-08T22:21:25.866Z,20.56
2023-09-08T22:23:53.644Z,20.50
2023-09-08T22:26:22.133Z,20.47
2023-09-08T22:28:51.932Z,20.42
2023-09-08T22:31:19.899Z,20.35
2023-09-08T22:33:49.811Z,20.32
2023-09-08T22:36:21.209Z,20.30
2023-09-08T22:38:49.041Z,20.29
2023-09-08T22:41:17.288Z,20.34
2023-09-08T22:43:45.335Z,20.30
2023-09-08T22:46:14.704Z,20.29
2023-09-08T22:48:42.537Z,20.21
2023-09-08T22:51:10.639Z,20.15
2023-09-08T22:53:38.808Z,20.04
2023-09-08T22:56:07.252Z,20.08
2023-09-08T22:58:43.873Z,20.04
2023-09-08T23:01:11.854Z,19.82
2023-09-08T23:03:41.639Z,19.69
2023-09-08T23:06:10.108Z,19.76
2023-09-08T23:08:37.925Z,19.74
2023-09-08T23:11:05.883Z,19.73
2023-09-08T23:13:33.617Z,19.73
2023-09-08T23:16:01.458Z,19.76
2023-09-08T23:18:29.529Z,19.71
2023-09-08T23:20:59.109Z,19.80
2023-09-08T23:23:27.052Z,19.70
2023-09-08T23:25:54.841Z,19.44
2023-09-08T23:28:22.654Z,19.38
2023-09-08T23:30:50.466Z,19.48
2023-09-08T23:33:18.934Z,19.63
2023-09-08T23:35:46.910Z,19.83
2023-09-08T23:38:16.276Z,19.79
2023-09-08T23:40:44.390Z,19.74
2023-09-08T23:43:12.281Z,19.81
2023-09-08T23:45:45.147Z,19.91
2023-09-08T23:48:13.165Z,20.01
2023-09-08T23:50:52.827Z,19.90
2023-09-08T23:53:23.115Z,19.92
2023-09-08T23:55:51.274Z,19.91
2023-09-08T23:58:20.690Z,19.92
